Time;durP1;ratioP1;P1;durP2;ratioP2;P2;SDS_P1;SDS_P2;PMS_P1;PMS_P2;Temp;Humidity;BMP_temperature;BMP_pressure;BME280_temperature;BME280_humidity;BME280_pressure;Samples;Min_cycle;Max_cycle;Signal;HPM_P1;HPM_P2
2021/08/28 00:02:25;;;;;;;23.98;13.30;;;;;;;16.51;85.52;99470.93;1690431;83;20985;-71
2021/08/28 00:04:52;;;;;;;17.87;12.05;;;;;;;16.41;86.07;99471.08;1689504;84;20985;-69
2021/08/28 00:07:18;;;;;;;12.98;10.90;;;;;;;16.35;86.67;99466.30;1677626;84;21020;-69
2021/08/28 00:09:46;;;;;;;16.12;12.53;;;;;;;16.32;87.20;99464.14;1690447;83;21565;-70
2021/08/28 00:12:12;;;;;;;24.75;14.33;;;;;;;16.26;87.69;99464.53;1690613;84;21857;-70
2021/08/28 00:14:38;;;;;;;17.57;12.33;;;;;;;16.15;88.35;99469.28;1690408;84;21253;-70
2021/08/28 00:17:05;;;;;;;21.55;11.97;;;;;;;16.07;88.99;99468.00;1685215;84;20996;-68
2021/08/28 00:19:32;;;;;;;16.40;11.78;;;;;;;15.97;89.82;99465.42;1675947;84;21139;-69
2021/08/28 00:21:58;;;;;;;22.85;14.60;;;;;;;15.94;90.40;99460.58;1689625;84;21561;-68
2021/08/28 00:24:25;;;;;;;18.85;12.78;;;;;;;15.95;90.83;99466.82;1689746;84;21008;-69
2021/08/28 00:26:51;;;;;;;16.17;12.45;;;;;;;16.00;90.81;99457.27;1689757;84;21088;-68
2021/08/28 00:29:17;;;;;;;20.65;13.00;;;;;;;16.01;90.86;99458.34;1689957;84;20953;-68
2021/08/28 00:31:44;;;;;;;17.23;12.47;;;;;;;15.99;91.04;99461.88;1690580;84;21088;-69
2021/08/28 00:34:10;;;;;;;20.40;12.07;;;;;;;15.98;91.16;99458.09;1691893;84;21068;-69
2021/08/28 00:36:37;;;;;;;22.65;13.43;;;;;;;16.04;91.29;99462.36;1691640;84;20981;-69
2021/08/28 00:39:04;;;;;;;16.70;11.75;;;;;;;16.10;91.10;99465.27;1690568;84;21071;-70
2021/08/28 00:41:30;;;;;;;15.58;10.55;;;;;;;16.13;90.89;99465.48;1690329;83;21012;-69
2021/08/28 00:43:57;;;;;;;16.97;12.43;;;;;;;16.18;90.81;99467.87;1691927;84;21048;-69
2021/08/28 00:46:23;;;;;;;20.72;14.43;;;;;;;16.19;90.65;99466.78;1690433;84;21001;-71
2021/08/28 00:48:50;;;;;;;19.37;13.72;;;;;;;16.13;90.50;99467.39;1684763;84;21080;-69
2021/08/28 00:51:16;;;;;;;24.00;17.07;;;;;;;16.08;90.73;99463.39;1690199;84;21078;-67
2021/08/28 00:53:43;;;;;;;23.05;14.45;;;;;;;16.02;90.94;99455.86;1669122;84;21088;-68
2021/08/28 00:56:10;;;;;;;17.05;13.60;;;;;;;16.03;91.21;99460.74;1693644;84;20992;-67
2021/08/28 00:58:37;;;;;;;20.10;15.08;;;;;;;16.11;91.40;99460.89;1682563;84;21120;-68
2021/08/28 01:01:08;;;;;;;19.98;14.50;;;;;;;16.21;91.17;99456.45;1682588;85;21025;-68
2021/08/28 01:03:34;;;;;;;21.48;15.32;;;;;;;16.24;90.62;99453.95;1682106;84;22484;-69
2021/08/28 01:06:28;;;;;;;15.60;13.93;;;;;;;16.30;90.60;99456.05;1685877;85;20984;-67
2021/08/28 01:09:10;;;;;;;14.95;12.88;;;;;;;16.31;90.10;99456.28;1684649;84;20949;-68
2021/08/28 01:12:02;;;;;;;;;;;;;;;16.24;89.82;99462.09;1639953;86;21071;-68
2021/08/28 01:14:31;;;;;;;16.23;12.15;;;;;;;16.13;89.85;99459.25;1616763;86;20157;-68
2021/08/28 01:17:06;;;;;;;19.73;11.90;;;;;;;16.04;90.35;99447.44;1683445;85;21333;-69
2021/08/28 01:19:50;;;;;;;22.65;11.90;;;;;;;15.95;90.72;99445.93;1675781;84;21088;-72
2021/08/28 01:22:19;;;;;;;14.58;11.55;;;;;;;15.93;91.18;99450.02;1612965;84;21059;-69
2021/08/28 01:24:53;;;;;;;22.17;13.95;;;;;;;15.95;91.49;99447.83;1603668;87;21538;-70
2021/08/28 01:27:42;;;;;;;23.07;14.87;;;;;;;15.95;91.63;99445.12;1642917;87;20927;-70
2021/08/28 01:30:11;;;;;;;15.78;14.05;;;;;;;15.98;91.76;99451.31;1597631;87;21270;-70
2021/08/28 01:32:39;;;;;;;20.52;14.87;;;;;;;15.99;91.55;99455.09;1688832;85;20993;-70
2021/08/28 01:35:06;;;;;;;23.57;15.60;;;;;;;15.95;91.85;99447.29;1666419;84;21007;-70
2021/08/28 01:37:34;;;;;;;18.98;13.83;;;;;;;16.01;91.92;99444.78;1666170;85;21427;-71
2021/08/28 01:40:06;;;;;;;17.32;13.98;;;;;;;16.08;91.85;99438.42;1685464;83;21048;-73
2021/08/28 01:42:34;;;;;;;21.17;15.30;;;;;;;16.09;91.34;99437.87;1689205;83;21069;-70
2021/08/28 01:45:03;;;;;;;20.10;16.02;;;;;;;16.01;91.41;99442.61;1689512;84;20984;-74
2021/08/28 01:47:32;;;;;;;18.17;14.38;;;;;;;15.95;91.51;99437.80;1665030;84;33975;-75
2021/08/28 01:49:59;;;;;;;30.70;18.32;;;;;;;15.89;91.66;99433.52;1678507;85;21040;-76
2021/08/28 01:52:25;;;;;;;17.10;14.07;;;;;;;15.86;92.00;99437.37;1682162;85;21578;-75
2021/08/28 01:54:54;;;;;;;17.12;13.72;;;;;;;15.88;92.36;99442.75;1682869;85;21067;-73
2021/08/28 01:57:23;;;;;;;23.50;17.02;;;;;;;15.93;92.39;99448.66;1657919;85;21028;-76
2021/08/28 01:59:53;;;;;;;20.57;15.40;;;;;;;15.95;92.31;99454.61;1679871;85;20988;-76
2021/08/28 02:02:27;;;;;;;18.48;14.28;;;;;;;15.97;92.19;99452.44;1680541;84;21044;-76
2021/08/28 02:04:55;;;;;;;16.50;14.23;;;;;;;15.97;92.25;99459.99;1661793;84;21057;-76
2021/08/28 02:07:52;;;;;;;18.57;14.55;;;;;;;16.01;92.27;99466.48;1690748;84;21019;-75
2021/08/28 02:10:23;;;;;;;15.32;13.53;;;;;;;16.02;92.26;99459.13;1690340;84;21033;-76
2021/08/28 02:12:57;;;;;;;24.77;16.25;;;;;;;16.07;92.53;99461.22;1690470;84;20949;-75
2021/08/28 02:15:44;;;;;;;22.32;18.32;;;;;;;16.13;92.55;99455.18;1683063;84;20985;-76
2021/08/28 02:18:39;;;;;;;23.07;17.45;;;;;;;16.13;92.54;99450.56;1674160;83;21529;-75
2021/08/28 02:21:08;;;;;;;25.20;17.80;;;;;;;16.17;92.71;99432.34;1667212;84;21098;-77
2021/08/28 02:24:01;;;;;;;17.37;15.60;;;;;;;16.25;92.99;99424.37;1690338;83;21521;-76
2021/08/28 02:26:38;;;;;;;17.52;13.65;;;;;;;16.27;92.74;99414.01;1668617;84;21060;-77
2021/08/28 02:29:05;;;;;;;19.48;17.42;;;;;;;16.26;92.69;99411.03;1690468;84;21060;-75
2021/08/28 02:31:37;;;;;;;16.30;13.20;;;;;;;16.23;92.68;99410.27;1670441;84;24781;-76
2021/08/28 02:34:05;;;;;;;19.75;16.17;;;;;;;16.24;92.94;99407.83;1665023;84;21408;-76
2021/08/28 02:36:33;;;;;;;21.90;16.23;;;;;;;16.27;92.95;99410.48;1653329;84;21001;-76
2021/08/28 02:38:59;;;;;;;21.82;16.02;;;;;;;16.25;92.67;99413.52;1692582;84;21048;-75
2021/08/28 02:41:26;;;;;;;21.90;17.32;;;;;;;16.26;92.56;99408.89;1690321;83;21212;-76
2021/08/28 02:43:58;;;;;;;19.70;17.62;;;;;;;16.23;92.47;99412.17;1690100;84;21021;-75
2021/08/28 02:46:26;;;;;;;18.98;15.88;;;;;;;16.23;92.38;99412.98;1690288;84;21098;-76
2021/08/28 02:48:55;;;;;;;16.93;12.55;;;;;;;16.21;92.32;99406.25;1687354;84;21021;-76
2021/08/28 02:51:22;;;;;;;15.00;12.88;;;;;;;16.23;92.39;99402.13;1690483;84;21035;-79
2021/08/28 02:53:48;;;;;;;24.65;15.90;;;;;;;16.21;92.29;99402.19;1690626;83;21497;-76
2021/08/28 02:56:16;;;;;;;21.62;13.40;;;;;;;16.14;92.27;99406.06;1690262;83;21056;-76
2021/08/28 02:58:42;;;;;;;15.08;12.70;;;;;;;16.13;92.72;99413.13;1687648;84;21069;-76
2021/08/28 03:01:09;;;;;;;15.08;13.48;;;;;;;16.17;92.73;99418.22;1690007;84;20986;-76
2021/08/28 03:03:35;;;;;;;17.30;14.10;;;;;;;16.20;92.92;99415.48;1677397;84;21084;-76
2021/08/28 03:06:04;;;;;;;16.62;14.85;;;;;;;16.22;92.72;99415.44;1666496;85;21501;-76
2021/08/28 03:08:33;;;;;;;14.38;12.37;;;;;;;16.26;92.80;99413.75;1640556;86;21052;-75
2021/08/28 03:11:00;;;;;;;17.42;13.13;;;;;;;16.25;92.61;99408.63;1647454;87;21170;-76
2021/08/28 03:13:31;;;;;;;17.75;13.75;;;;;;;16.21;92.70;99395.40;1647623;87;21054;-76
2021/08/28 03:15:59;;;;;;;17.15;14.63;;;;;;;16.19;92.98;99397.04;1647767;85;21042;-76
2021/08/28 03:18:28;;;;;;;16.02;12.53;;;;;;;16.21;93.14;99396.76;1647349;85;21129;-79
2021/08/28 03:20:56;;;;;;;17.73;13.60;;;;;;;16.19;92.84;99397.04;1665642;86;21044;-76
2021/08/28 03:23:26;;;;;;;18.75;16.25;;;;;;;16.19;92.85;99396.23;1648738;86;21862;-73
2021/08/28 03:25:57;;;;;;;19.00;14.28;;;;;;;16.17;92.71;99415.51;1664317;86;20957;-75
2021/08/28 03:28:24;;;;;;;18.70;15.95;;;;;;;16.20;92.89;99415.48;1666447;85;20994;-76
2021/08/28 03:30:50;;;;;;;16.62;14.90;;;;;;;16.23;92.47;99418.95;1666710;86;21098;-76
2021/08/28 03:33:18;;;;;;;19.17;17.27;;;;;;;16.21;92.43;99404.32;1647602;87;21019;-74
2021/08/28 03:35:48;;;;;;;28.02;24.98;;;;;;;16.22;92.58;99405.13;1624605;87;22531;-74
2021/08/28 03:38:15;;;;;;;25.32;21.02;;;;;;;16.19;92.62;99403.02;1647473;87;21023;-76
2021/08/28 03:40:41;;;;;;;23.70;18.27;;;;;;;16.21;92.85;99406.25;1647680;85;21556;-78
2021/08/28 03:43:09;;;;;;;17.85;15.98;;;;;;;16.24;92.87;99413.25;1599370;88;21559;-75
2021/08/28 03:45:37;;;;;;;16.90;15.18;;;;;;;16.26;92.62;99414.33;1646759;87;20987;-74
2021/08/28 03:48:06;;;;;;;16.75;13.48;;;;;;;16.27;92.70;99414.55;1647477;85;21182;-75
2021/08/28 03:50:34;;;;;;;15.95;14.30;;;;;;;16.30;92.48;99420.22;1647318;86;21516;-74
2021/08/28 03:53:02;;;;;;;14.87;13.22;;;;;;;16.31;92.37;99413.67;1623693;87;21110;-73
2021/08/28 03:55:29;;;;;;;15.20;12.88;;;;;;;16.28;92.16;99412.11;1624763;87;21006;-81
2021/08/28 03:57:58;;;;;;;14.55;12.07;;;;;;;16.27;92.33;99412.65;1647783;86;21011;-73
2021/08/28 04:00:25;;;;;;;13.95;12.47;;;;;;;16.27;92.51;99418.62;1602427;87;21329;-73
2021/08/28 04:02:52;;;;;;;18.25;15.05;;;;;;;16.27;92.51;99422.15;1647283;87;20974;-73
2021/08/28 04:05:22;;;;;;;21.23;15.30;;;;;;;16.29;92.61;99415.08;1621921;87;21539;-75
2021/08/28 04:07:49;;;;;;;16.60;14.60;;;;;;;16.29;92.86;99416.44;1665990;85;21095;-76
2021/08/28 04:10:18;;;;;;;16.05;14.38;;;;;;;16.32;93.00;99420.72;1665272;86;21096;-75
2021/08/28 04:12:45;;;;;;;19.15;15.65;;;;;;;16.35;92.94;99419.34;1663424;86;21262;-77
2021/08/28 04:15:11;;;;;;;20.82;14.90;;;;;;;16.32;92.87;99410.41;1646259;87;21106;-77
2021/08/28 04:17:56;;;;;;;14.93;13.40;;;;;;;16.29;93.03;99411.82;1645445;85;21070;-79
2021/08/28 04:20:23;;;;;;;22.55;15.83;;;;;;;16.30;93.31;99409.37;1645212;85;21052;-80
2021/08/28 04:22:55;;;;;;;21.30;16.12;;;;;;;16.32;93.43;99426.15;1623154;87;21055;-79
2021/08/28 04:25:43;;;;;;;18.25;15.18;;;;;;;16.35;93.56;99431.01;1615748;88;21105;-79
2021/08/28 04:28:13;;;;;;;18.52;15.50;;;;;;;16.38;93.60;99424.17;1636874;87;21071;-78
2021/08/28 04:30:39;;;;;;;21.27;14.73;;;;;;;16.43;93.98;99420.83;1647541;86;20959;-80
2021/08/28 04:33:07;;;;;;;21.37;15.55;;;;;;;16.54;94.15;99427.73;1647518;86;21046;-78
2021/08/28 04:35:35;;;;;;;18.92;14.93;;;;;;;16.66;94.08;99416.98;1647671;86;21035;-79
2021/08/28 04:38:01;;;;;;;17.52;14.53;;;;;;;16.72;93.69;99421.23;1647166;85;21113;-78
2021/08/28 04:40:28;;;;;;;24.10;15.93;;;;;;;16.76;93.51;99424.41;1665277;85;21010;-77
2021/08/28 04:42:54;;;;;;;19.85;16.95;;;;;;;16.73;93.39;99411.98;1666985;86;20957;-78
2021/08/28 04:45:22;;;;;;;21.25;15.48;;;;;;;16.75;93.50;99415.19;1663686;86;21051;-78
2021/08/28 04:48:06;;;;;;;19.07;17.00;;;;;;;16.81;93.41;99409.39;1568054;91;21618;-77
2021/08/28 04:50:35;;;;;;;19.82;15.50;;;;;;;16.88;93.31;99423.38;1621755;87;21108;-78
2021/08/28 04:53:02;;;;;;;17.55;15.68;;;;;;;16.95;92.99;99418.38;1647578;85;20998;-77
2021/08/28 04:55:30;;;;;;;20.35;15.98;;;;;;;16.95;92.35;99413.50;1647575;87;20963;-77
2021/08/28 04:57:56;;;;;;;18.52;14.83;;;;;;;16.90;92.22;99412.23;1647508;86;21086;-77
2021/08/28 05:00:25;;;;;;;18.20;15.70;;;;;;;16.91;92.36;99415.20;1646776;86;21529;-76
2021/08/28 05:03:10;;;;;;;19.45;15.83;;;;;;;16.96;92.35;99423.27;1646121;85;21084;-75
2021/08/28 05:05:36;;;;;;;17.02;15.25;;;;;;;17.04;91.95;99428.00;1646854;87;21507;-79
2021/08/28 05:08:03;;;;;;;23.35;17.57;;;;;;;17.06;91.22;99420.38;1646493;87;21146;-77
2021/08/28 05:10:30;;;;;;;17.62;14.75;;;;;;;17.04;90.83;99428.55;1646489;85;21076;-77
2021/08/28 05:12:58;;;;;;;22.00;15.90;;;;;;;16.97;90.71;99420.27;1619488;87;20975;-79
2021/08/28 05:15:27;;;;;;;18.17;15.68;;;;;;;16.97;90.92;99424.34;1664336;85;21407;-78
2021/08/28 05:17:57;;;;;;;21.40;16.82;;;;;;;17.03;91.09;99427.74;1665420;85;21004;-78
2021/08/28 05:20:24;;;;;;;22.37;16.23;;;;;;;17.11;90.91;99432.52;1657306;85;20965;-77
2021/08/28 05:23:12;;;;;;;19.10;15.35;;;;;;;17.21;90.75;99434.25;1578315;89;21200;-77
2021/08/28 05:25:52;;;;;;;22.10;18.05;;;;;;;17.30;89.96;99435.97;1585501;89;21083;-78
2021/08/28 05:28:19;;;;;;;17.85;15.80;;;;;;;17.31;89.58;99436.78;1597319;85;21811;-76
2021/08/28 05:30:45;;;;;;;21.40;17.02;;;;;;;17.33;89.52;99439.98;1690005;85;20961;-77
2021/08/28 05:33:14;;;;;;;25.85;18.00;;;;;;;17.32;89.23;99437.01;1661238;85;21148;-77
2021/08/28 05:35:42;;;;;;;22.52;18.05;;;;;;;17.29;89.03;99434.35;1688927;85;21551;-77
2021/08/28 05:38:17;;;;;;;17.70;15.70;;;;;;;17.29;89.32;99443.86;1681427;84;21644;-77
2021/08/28 05:40:44;;;;;;;21.35;16.57;;;;;;;17.33;89.13;99452.22;1689979;85;21550;-77
2021/08/28 05:43:10;;;;;;;19.10;16.25;;;;;;;17.26;89.06;99457.26;1689835;85;20985;-77
2021/08/28 05:45:42;;;;;;;20.50;15.70;;;;;;;17.15;89.58;99457.98;1685209;85;21536;-78
2021/08/28 05:48:10;;;;;;;21.42;15.05;;;;;;;17.10;90.14;99451.83;1666089;85;21088;-77
2021/08/28 05:50:38;;;;;;;21.23;16.65;;;;;;;17.06;90.48;99450.27;1685070;85;21022;-78
2021/08/28 05:53:05;;;;;;;16.52;14.83;;;;;;;17.04;91.09;99447.58;1675632;84;21364;-78
2021/08/28 05:55:32;;;;;;;18.23;16.30;;;;;;;17.07;91.49;99445.64;1699882;84;20996;-77
2021/08/28 05:57:58;;;;;;;20.08;17.02;;;;;;;17.07;91.70;99445.09;1690200;84;20928;-77
2021/08/28 06:00:25;;;;;;;25.20;16.02;;;;;;;17.11;92.05;99442.58;1609837;87;21752;-77
2021/08/28 06:02:53;;;;;;;20.70;17.17;;;;;;;17.12;92.18;99442.84;1660902;84;21012;-78
2021/08/28 06:05:23;;;;;;;18.07;15.93;;;;;;;17.10;92.16;99451.83;1661110;86;21226;-75
2021/08/28 06:07:57;;;;;;;24.43;18.52;;;;;;;17.09;92.73;99465.96;1634170;86;21535;-77
2021/08/28 06:10:31;;;;;;;21.02;18.60;;;;;;;17.04;93.08;99462.52;1637725;86;21401;-78
2021/08/28 06:13:00;;;;;;;21.27;15.48;;;;;;;16.90;94.18;99455.14;1655734;85;21103;-78
2021/08/28 06:15:31;;;;;;;15.53;13.95;;;;;;;16.77;95.84;99449.67;1684550;85;21478;-76
2021/08/28 06:18:00;;;;;;;15.53;13.93;;;;;;;16.71;96.09;99444.86;1684635;83;21128;-74
2021/08/28 06:20:26;;;;;;;16.25;14.50;;;;;;;16.69;96.35;99441.62;1688568;85;20953;-76
2021/08/28 06:22:53;;;;;;;17.05;13.03;;;;;;;16.67;96.52;99435.70;1684311;85;20985;-77
2021/08/28 06:25:21;;;;;;;14.38;10.35;;;;;;;16.70;96.52;99439.72;1682116;85;21518;-77
2021/08/28 06:27:48;;;;;;;14.18;11.68;;;;;;;16.75;96.67;99441.80;1657452;85;21097;-78
2021/08/28 06:30:16;;;;;;;15.63;11.12;;;;;;;16.81;96.48;99438.45;1662906;85;21777;-76
2021/08/28 06:32:43;;;;;;;13.95;11.70;;;;;;;16.85;96.32;99430.77;1708739;83;21329;-76
2021/08/28 06:35:11;;;;;;;14.63;11.57;;;;;;;16.89;96.28;99434.50;1716866;83;21509;-76
2021/08/28 06:37:39;;;;;;;13.78;12.33;;;;;;;16.93;96.25;99438.78;1716661;82;20968;-77
2021/08/28 06:40:16;;;;;;;16.93;12.82;;;;;;;16.99;96.21;99438.41;1627394;87;21654;-77
2021/08/28 06:43:03;;;;;;;13.50;11.10;;;;;;;17.00;95.81;99445.47;1693273;83;22160;-76
2021/08/28 06:45:47;;;;;;;14.65;12.90;;;;;;;17.01;95.26;99439.48;1692162;85;21005;-79
2021/08/28 06:48:32;;;;;;;14.70;12.28;;;;;;;17.02;95.17;99438.94;1693621;85;20944;-77
2021/08/28 06:51:20;;;;;;;15.13;13.62;;;;;;;17.06;95.37;99437.23;1672795;85;21009;-77
2021/08/28 06:54:06;;;;;;;15.95;12.37;;;;;;;17.14;95.28;99445.49;1691577;85;20992;-76
2021/08/28 06:56:41;;;;;;;14.38;12.35;;;;;;;17.20;95.38;99457.09;1639645;85;21045;-77
2021/08/28 06:59:14;;;;;;;21.30;13.85;;;;;;;17.24;95.48;99463.53;1657128;85;21029;-77
2021/08/28 07:01:45;;;;;;;14.07;12.58;;;;;;;17.21;95.69;99459.52;1688293;83;20999;-80
2021/08/28 07:04:22;;;;;;;16.32;13.43;;;;;;;17.21;95.86;99463.59;1670392;85;21001;-76
2021/08/28 07:07:08;;;;;;;15.18;13.50;;;;;;;17.19;95.97;99460.36;1580596;89;21627;-78
2021/08/28 07:09:35;;;;;;;16.27;13.62;;;;;;;17.14;96.21;99463.70;1580467;89;21082;-78
2021/08/28 07:12:02;;;;;;;15.85;12.82;;;;;;;17.14;96.66;99463.16;1630035;85;21090;-76
2021/08/28 07:14:29;;;;;;;15.00;13.53;;;;;;;17.20;97.14;99465.23;1685311;85;21045;-76
2021/08/28 07:16:56;;;;;;;12.93;11.63;;;;;;;17.26;97.20;99470.84;1685057;85;21541;-78
2021/08/28 07:19:22;;;;;;;13.25;11.55;;;;;;;17.31;97.11;99472.12;1688033;85;21009;-77
2021/08/28 07:21:50;;;;;;;13.70;12.30;;;;;;;17.37;96.57;99475.78;1690096;85;21246;-78
2021/08/28 07:24:19;;;;;;;15.13;11.80;;;;;;;17.49;96.72;99473.14;1689900;85;21072;-78
2021/08/28 07:26:47;;;;;;;22.90;10.93;;;;;;;17.59;95.97;99477.88;1685704;85;21075;-77
2021/08/28 07:29:32;;;;;;;10.58;9.50;;;;;;;17.66;95.45;99478.81;1686451;83;21001;-76
2021/08/28 07:32:00;;;;;;;15.68;11.48;;;;;;;17.77;93.96;99479.69;1675880;84;21516;-75
2021/08/28 07:34:27;;;;;;;10.58;9.58;;;;;;;17.80;93.05;99478.27;1675117;84;21332;-77
2021/08/28 07:36:55;;;;;;;10.20;9.23;;;;;;;17.88;92.36;99474.05;1675491;83;20973;-77
2021/08/28 07:39:21;;;;;;;10.50;9.50;;;;;;;17.91;91.98;99482.95;1631321;86;20951;-77
2021/08/28 07:41:48;;;;;;;11.08;9.40;;;;;;;17.95;90.80;99482.05;1639425;86;21533;-77
2021/08/28 07:44:15;;;;;;;11.63;9.70;;;;;;;17.98;90.71;99489.63;1663782;85;20944;-76
2021/08/28 07:46:41;;;;;;;9.55;8.43;;;;;;;18.04;89.29;99490.30;1682118;85;21562;-79
2021/08/28 07:49:14;;;;;;;10.48;9.05;;;;;;;18.09;89.23;99491.56;1658821;85;21000;-80
2021/08/28 07:51:40;;;;;;;9.33;8.43;;;;;;;18.20;89.36;99488.88;1675625;84;21687;-76
2021/08/28 07:54:07;;;;;;;9.35;8.25;;;;;;;18.35;89.05;99498.09;1699900;84;20956;-77
2021/08/28 07:56:34;;;;;;;10.72;9.63;;;;;;;18.48;88.13;99498.61;1699737;83;21596;-78
2021/08/28 07:59:00;;;;;;;10.95;8.25;;;;;;;18.61;87.46;99507.32;1698969;84;21050;-78
2021/08/28 08:01:27;;;;;;;15.00;9.63;;;;;;;18.72;86.89;99504.63;1699631;84;20973;-79
2021/08/28 08:03:56;;;;;;;14.65;9.25;;;;;;;18.84;85.98;99503.28;1678745;84;21026;-76
2021/08/28 08:06:45;;;;;;;10.72;9.58;;;;;;;18.95;85.04;99507.36;1643880;87;20999;-78
2021/08/28 08:09:16;;;;;;;15.38;9.93;;;;;;;19.09;83.55;99519.00;1617121;85;21029;-78
2021/08/28 08:12:03;;;;;;;12.55;8.68;;;;;;;19.24;82.10;99520.55;1685121;85;21998;-78
2021/08/28 08:14:48;;;;;;;9.60;8.43;;;;;;;19.36;79.92;99512.63;1683183;85;20981;-79
2021/08/28 08:17:32;;;;;;;15.18;9.55;;;;;;;19.44;78.59;99518.15;1682249;85;21056;-77
2021/08/28 08:20:12;;;;;;;10.40;9.23;;;;;;;19.50;78.57;99511.45;1607159;87;21536;-78
2021/08/28 08:23:03;;;;;;;15.20;9.00;;;;;;;19.59;78.47;99514.22;1662379;86;21028;-81
2021/08/28 08:25:41;;;;;;;8.90;7.70;;;;;;;19.69;78.18;99525.42;1661235;85;21433;-78
2021/08/28 08:28:19;;;;;;;9.60;6.67;;;;;;;19.79;76.03;99515.04;1604155;88;20933;-76
2021/08/28 08:31:04;;;;;;;8.43;6.83;;;;;;;19.90;75.56;99528.64;1690166;85;21024;-77
2021/08/28 08:33:31;;;;;;;10.70;7.62;;;;;;;19.95;74.44;99509.38;1688876;83;21057;-76
2021/08/28 08:35:57;;;;;;;9.45;7.95;;;;;;;19.97;74.97;99515.91;1690117;84;20933;-80
2021/08/28 08:38:24;;;;;;;9.05;8.13;;;;;;;20.04;74.64;99514.90;1689934;83;21558;-81
2021/08/28 08:40:51;;;;;;;6.62;5.92;;;;;;;20.11;74.08;99504.30;1690449;84;20973;-79
2021/08/28 08:43:17;;;;;;;6.92;5.85;;;;;;;20.22;73.92;99517.11;1690260;85;21621;-78
2021/08/28 08:45:47;;;;;;;7.45;6.47;;;;;;;20.29;73.47;99520.16;1645561;85;21036;-81
2021/08/28 08:48:22;;;;;;;9.73;6.40;;;;;;;20.36;72.94;99529.55;1666139;85;21116;-80
2021/08/28 08:50:50;;;;;;;9.23;6.72;;;;;;;20.39;71.30;99534.36;1689925;85;21105;-77
2021/08/28 08:53:25;;;;;;;7.42;6.15;;;;;;;20.31;70.97;99531.62;1666347;85;20969;-79
2021/08/28 08:56:01;;;;;;;8.40;6.75;;;;;;;20.24;70.77;99532.62;1686695;83;21506;-77
2021/08/28 08:58:29;;;;;;;7.05;6.33;;;;;;;20.13;70.76;99536.77;1676853;84;21019;-80
2021/08/28 09:00:58;;;;;;;5.03;4.53;;;;;;;20.11;70.32;99523.97;1673988;84;21069;-81
2021/08/28 09:03:39;;;;;;;5.58;4.37;;;;;;;20.13;69.05;99539.50;1699995;84;21143;-79
2021/08/28 09:06:07;;;;;;;4.90;4.40;;;;;;;20.17;68.75;99542.64;1653940;86;21045;-77
2021/08/28 09:08:35;;;;;;;5.22;3.75;;;;;;;20.24;68.61;99544.92;1609993;88;21536;-78
2021/08/28 09:11:04;;;;;;;6.42;5.30;;;;;;;20.33;68.01;99537.58;1609294;88;21064;-78
2021/08/28 09:13:31;;;;;;;3.75;3.45;;;;;;;20.42;68.02;99537.03;1639785;87;21031;-78
2021/08/28 09:16:07;;;;;;;6.20;3.95;;;;;;;20.54;67.39;99546.77;1639735;87;21069;-80
2021/08/28 09:18:52;;;;;;;;;;;;;;;20.61;66.96;99552.58;1618608;87;21099;-79
2021/08/28 09:21:21;;;;;;;;;;;;;;;20.62;66.53;99556.93;1642186;87;20111;-78
2021/08/28 09:23:59;;;;;;;10.80;4.45;;;;;;;20.50;65.91;99554.56;1639596;87;20147;-80
2021/08/28 09:26:30;;;;;;;5.22;3.83;;;;;;;20.48;66.00;99561.70;1639779;87;21111;-80
2021/08/28 09:28:58;;;;;;;5.53;3.85;;;;;;;20.51;65.97;99552.08;1617727;87;21304;-80
2021/08/28 09:31:52;;;;;;;16.75;3.40;;;;;;;20.55;65.26;99563.41;1641216;86;20992;-79
2021/08/28 09:34:29;;;;;;;5.15;3.52;;;;;;;20.57;64.91;99564.47;1617096;87;21010;-80
2021/08/28 09:37:04;;;;;;;4.37;3.22;;;;;;;20.51;64.09;99563.81;1639646;86;21591;-80
2021/08/28 09:39:50;;;;;;;5.35;3.33;;;;;;;20.51;64.29;99575.30;1637306;87;21025;-79
2021/08/28 09:42:21;;;;;;;2.98;2.70;;;;;;;20.48;64.24;99571.26;1616075;87;21139;-78
2021/08/28 09:44:51;;;;;;;8.85;3.15;;;;;;;20.49;63.94;99567.41;1639715;86;21020;-84
2021/08/28 09:47:31;;;;;;;5.53;2.92;;;;;;;20.48;63.78;99572.63;1639878;87;20995;-78
2021/08/28 09:49:58;;;;;;;3.45;3.15;;;;;;;20.49;63.19;99587.09;1575178;87;21008;-77
2021/08/28 09:52:26;;;;;;;5.12;2.92;;;;;;;20.50;63.19;99580.52;1634084;86;21543;-79
2021/08/28 09:55:01;;;;;;;3.17;2.45;;;;;;;20.53;63.47;99576.58;1684671;85;21143;-79
2021/08/28 09:57:30;;;;;;;2.75;2.55;;;;;;;20.58;63.31;99592.83;1682421;85;20902;-79
2021/08/28 09:59:58;;;;;;;4.92;2.98;;;;;;;20.58;61.97;99601.02;1634865;86;21009;-80
2021/08/28 10:02:27;;;;;;;1.98;1.77;;;;;;;20.49;61.43;99609.77;1639958;86;21091;-79
2021/08/28 10:04:58;;;;;;;6.47;2.20;;;;;;;20.42;61.49;99603.97;1641877;86;21046;-79
2021/08/28 10:07:31;;;;;;;2.83;2.55;;;;;;;20.38;61.68;99596.95;1619606;87;21116;-80
2021/08/28 10:10:08;;;;;;;4.50;2.72;;;;;;;20.39;61.79;99599.92;1658100;85;21600;-79
2021/08/28 10:12:40;;;;;;;;;;;;;;;20.45;61.66;99601.96;1662835;85;20917;-79
2021/08/28 10:15:10;;;;;;;3.60;2.85;;;;;;;20.47;61.55;99600.28;1675172;84;20110;-81
2021/08/28 10:17:43;;;;;;;1.85;1.75;;;;;;;20.47;61.24;99607.92;1644597;85;21028;-82
2021/08/28 10:20:12;;;;;;;2.70;2.22;;;;;;;20.49;60.84;99607.59;1687475;85;21255;-80
2021/08/28 10:22:41;;;;;;;4.10;2.42;;;;;;;20.51;61.38;99605.36;1676688;84;21091;-80
2021/08/28 10:25:14;;;;;;;2.95;1.90;;;;;;;20.52;61.43;99604.24;1644306;84;21083;-81
2021/08/28 10:27:45;;;;;;;1.80;1.67;;;;;;;20.53;61.45;99608.00;1660206;85;21569;-80
2021/08/28 10:30:18;;;;;;;8.18;2.40;;;;;;;20.54;61.44;99608.81;1659175;85;21119;-82
2021/08/28 10:32:46;;;;;;;2.25;2.05;;;;;;;20.56;61.48;99616.95;1699774;83;21133;-82
2021/08/28 10:35:18;;;;;;;5.37;2.22;;;;;;;20.59;61.13;99614.94;1672980;84;20971;-80
2021/08/28 10:37:48;;;;;;;2.25;2.05;;;;;;;20.64;61.15;99615.34;1680047;84;21030;-79
2021/08/28 10:40:25;;;;;;;2.72;2.52;;;;;;;20.69;60.71;99623.40;1642338;87;21506;-82
2021/08/28 10:42:54;;;;;;;3.27;2.98;;;;;;;20.70;60.25;99627.75;1672919;85;21037;-80
2021/08/28 10:45:33;;;;;;;3.52;2.50;;;;;;;20.68;60.21;99626.69;1661887;85;21153;-81
2021/08/28 10:48:13;;;;;;;2.25;2.05;;;;;;;20.66;60.30;99622.68;1636902;87;21062;-78
2021/08/28 10:50:41;;;;;;;4.20;2.20;;;;;;;20.68;60.41;99631.34;1663160;85;21000;-79
2021/08/28 10:53:10;;;;;;;1.67;1.57;;;;;;;20.72;59.98;99639.96;1633287;87;21088;-80
2021/08/28 10:55:44;;;;;;;1.55;1.45;;;;;;;20.75;59.12;99648.91;1612691;87;20987;-80
2021/08/28 10:58:26;;;;;;;;;;;;;;;20.76;59.04;99638.78;1651434;86;21112;-80
2021/08/28 11:00:55;;;;;;;2.02;1.65;;;;;;;20.78;59.30;99639.25;1662317;85;20235;-80
2021/08/28 11:03:28;;;;;;;6.12;2.12;;;;;;;20.83;58.87;99652.22;1643619;86;21505;-76
2021/08/28 11:06:17;;;;;;;1.40;1.30;;;;;;;20.84;58.78;99643.45;1656727;86;21095;-70
2021/08/28 11:08:50;;;;;;;1.98;1.77;;;;;;;20.87;58.76;99658.66;1693751;84;21200;-71
2021/08/28 11:11:35;;;;;;;4.92;4.33;;;;;;;20.94;58.88;99637.69;1695119;83;21769;-76
2021/08/28 11:14:09;;;;;;;2.60;2.37;;;;;;;21.05;58.85;99638.19;1641368;86;21562;-76
2021/08/28 11:16:46;;;;;;;2.77;2.22;;;;;;;21.17;58.10;99640.55;1624259;88;21115;-74
2021/08/28 11:19:28;;;;;;;3.00;2.70;;;;;;;21.26;56.97;99644.66;1622787;87;21592;-73
2021/08/28 11:21:54;;;;;;;4.33;1.98;;;;;;;21.38;57.49;99652.23;1624747;87;21071;-73
2021/08/28 11:24:23;;;;;;;2.10;1.90;;;;;;;21.38;57.49;99652.23;1627822;87;21057;-73
2021/08/28 11:26:52;;;;;;;4.15;2.12;;;;;;;21.37;57.94;99658.83;1608497;88;21555;-74
2021/08/28 11:29:43;;;;;;;3.52;1.75;;;;;;;21.38;58.03;99652.23;1628118;87;21025;-72
2021/08/28 11:32:17;;;;;;;1.85;1.62;;;;;;;21.42;57.88;99638.95;1628189;86;20975;-74
2021/08/28 11:34:46;;;;;;;2.33;1.82;;;;;;;21.52;57.71;99637.82;1652823;86;21054;-73
2021/08/28 11:37:38;;;;;;;2.67;1.90;;;;;;;21.62;57.59;99642.97;1627695;87;21723;-73
2021/08/28 11:40:25;;;;;;;1.60;1.50;;;;;;;21.73;56.99;99641.48;1622672;87;21040;-74
2021/08/28 11:42:51;;;;;;;3.10;2.25;;;;;;;21.85;56.29;99640.83;1688985;84;20944;-74
2021/08/28 11:45:18;;;;;;;2.85;2.60;;;;;;;21.96;55.91;99631.17;1701944;83;20999;-73